Time;durP1;ratioP1;P1;durP2;ratioP2;P2;SDS_P1;SDS_P2;PMS_P1;PMS_P2;Temp;Humidity;BMP_temperature;BMP_pressure;BME280_temperature;BME280_humidity;BME280_pressure;Samples;Min_cycle;Max_cycle;Signal;HPM_P1;HPM_P2
2022/12/19 00:01:36;;;;;;;68.35;25.25;;;;;;;-4.12;100.00;100895.19;4469173;32;20512;-72
2022/12/19 00:04:06;;;;;;;66.78;23.77;;;;;;;-4.08;100.00;100901.16;4469021;32;20614;-73
2022/12/19 00:06:36;;;;;;;62.67;26.48;;;;;;;-4.14;100.00;100906.25;4469092;32;20410;-72
2022/12/19 00:09:04;;;;;;;72.37;25.58;;;;;;;-4.09;100.00;100909.69;4475303;32;20157;-72
2022/12/19 00:11:32;;;;;;;68.32;24.58;;;;;;;-4.21;100.00;100918.19;4484501;31;20151;-72
2022/12/19 00:13:59;;;;;;;72.80;26.33;;;;;;;-4.20;100.00;100921.59;4484643;31;20560;-72
2022/12/19 00:16:28;;;;;;;66.60;23.25;;;;;;;-4.21;100.00;100925.84;4484648;32;20478;-73
2022/12/19 00:18:58;;;;;;;55.83;23.90;;;;;;;-4.23;100.00;100924.97;4484572;31;20099;-72
2022/12/19 00:21:30;;;;;;;63.13;24.15;;;;;;;-4.22;100.00;100928.37;4476241;31;20119;-73
2022/12/19 00:24:03;;;;;;;66.68;25.73;;;;;;;-4.29;100.00;100918.09;4468910;32;20076;-73
2022/12/19 00:26:48;;;;;;;64.80;24.20;;;;;;;-4.21;100.00;100915.63;4469003;32;20141;-72
2022/12/19 00:29:16;;;;;;;73.90;23.98;;;;;;;-4.20;100.00;100922.41;4468893;32;20100;-72
2022/12/19 00:31:44;;;;;;;74.15;25.40;;;;;;;-4.26;100.00;100913.88;4468804;32;20771;-73
2022/12/19 00:34:13;;;;;;;63.40;23.75;;;;;;;-4.21;100.00;100912.19;4468763;32;20115;-72
2022/12/19 00:36:41;;;;;;;68.32;25.00;;;;;;;-4.27;100.00;100920.66;4468555;32;20100;-72
2022/12/19 00:39:09;;;;;;;71.03;24.02;;;;;;;-4.28;100.00;100917.25;4468635;32;20118;-72
2022/12/19 00:41:38;;;;;;;60.38;25.50;;;;;;;-4.18;100.00;100922.44;4468656;32;20161;-72
2022/12/19 00:44:15;;;;;;;70.78;23.27;;;;;;;-4.25;100.00;100913.88;4468394;32;20438;-73
2022/12/19 00:46:42;;;;;;;63.83;23.67;;;;;;;-4.22;100.00;100916.44;4469167;32;20084;-73
2022/12/19 00:49:19;;;;;;;72.47;25.02;;;;;;;-4.22;100.00;100921.56;4470430;32;20538;-72
2022/12/19 00:51:47;;;;;;;64.90;22.15;;;;;;;-4.28;100.00;100906.19;4470846;32;20096;-72
2022/12/19 00:54:14;;;;;;;68.20;25.17;;;;;;;-4.19;100.00;100903.66;4470378;32;20179;-72
2022/12/19 00:56:42;;;;;;;69.10;26.58;;;;;;;-4.27;100.00;100913.00;4470466;32;20398;-72
2022/12/19 00:59:09;;;;;;;81.05;26.70;;;;;;;-4.29;100.00;100904.47;4470482;32;20093;-73
2022/12/19 01:01:39;;;;;;;76.10;25.77;;;;;;;-4.30;100.00;100906.16;4470350;32;20118;-73
2022/12/19 01:04:11;;;;;;;65.35;23.65;;;;;;;-4.35;100.00;100909.53;4470495;32;20080;-73
2022/12/19 01:06:56;;;;;;;57.53;22.92;;;;;;;-4.33;100.00;100905.28;4470435;32;20093;-73
2022/12/19 01:09:30;;;;;;;;;;;;;;;-4.41;100.00;100894.16;4480298;32;20123;-73
2022/12/19 01:14:44;;;;;;;61.42;23.95;;;;;;;-4.39;100.00;100892.44;4485768;31;20118;-73
2022/12/19 01:17:11;;;;;;;61.70;22.42;;;;;;;-4.40;100.00;100896.72;4486024;31;20510;-73
2022/12/19 01:19:39;;;;;;;64.37;23.80;;;;;;;-4.34;100.00;100898.47;4486131;31;20192;-73
2022/12/19 01:22:12;;;;;;;60.08;22.23;;;;;;;-4.40;100.00;100883.94;4472891;31;20093;-73
2022/12/19 01:24:40;;;;;;;62.92;24.10;;;;;;;-4.37;100.00;100863.47;4470189;32;20084;-73
2022/12/19 01:27:07;;;;;;;71.32;25.37;;;;;;;-4.35;100.00;100869.44;4470258;32;20123;-73
2022/12/19 01:29:35;;;;;;;71.87;23.52;;;;;;;-4.39;100.00;100856.63;4470151;32;20115;-73
2022/12/19 01:32:19;;;;;;;60.58;21.80;;;;;;;-4.41;100.00;100863.44;4470589;32;20084;-73
2022/12/19 01:34:47;;;;;;;69.03;24.92;;;;;;;-4.37;100.00;100866.03;4470200;32;20630;-73
2022/12/19 01:37:17;;;;;;;63.25;23.50;;;;;;;-4.43;100.00;100862.59;4470143;32;20089;-73
2022/12/19 01:39:44;;;;;;;72.00;23.80;;;;;;;-4.38;100.00;100861.75;4470359;32;20093;-73
2022/12/19 01:42:17;;;;;;;60.30;21.37;;;;;;;-4.30;100.00;100861.78;4470369;32;20423;-73
2022/12/19 01:45:03;;;;;;;61.65;21.75;;;;;;;-4.18;100.00;100854.22;4469758;32;20135;-73
2022/12/19 01:47:32;;;;;;;55.53;21.60;;;;;;;-4.06;100.00;100857.66;4470595;32;20482;-73
2022/12/19 01:50:00;;;;;;;50.05;19.05;;;;;;;-4.08;100.00;100856.81;4468611;32;20500;-73
2022/12/19 01:52:29;;;;;;;66.35;22.25;;;;;;;-3.92;100.00;100856.88;4470218;32;20101;-73
2022/12/19 01:54:56;;;;;;;62.58;24.40;;;;;;;-3.96;100.00;100855.13;4469885;32;20151;-73
2022/12/19 01:57:24;;;;;;;55.35;22.02;;;;;;;-4.07;100.00;100859.38;4468773;32;20117;-73
2022/12/19 01:59:55;;;;;;;58.40;21.73;;;;;;;-3.97;100.00;100853.41;4468959;32;20112;-73
2022/12/19 02:02:32;;;;;;;75.20;24.17;;;;;;;-4.01;100.00;100856.84;4469920;32;20123;-73
2022/12/19 02:05:00;;;;;;;67.15;18.05;;;;;;;-3.97;100.00;100862.81;4469972;32;20115;-73
2022/12/19 02:07:27;;;;;;;91.70;21.73;;;;;;;-4.06;100.00;100863.63;4468654;32;20120;-73
2022/12/19 02:09:57;;;;;;;98.15;22.15;;;;;;;-4.02;100.00;100860.25;4482402;32;20095;-73
2022/12/19 02:12:25;;;;;;;87.35;17.92;;;;;;;-4.04;100.00;100850.81;4485639;31;20095;-73
2022/12/19 02:14:54;;;;;;;51.92;17.33;;;;;;;-3.96;100.00;100854.28;4483997;32;20100;-73
2022/12/19 02:17:51;;;;;;;100.70;22.70;;;;;;;-3.83;100.00;100861.19;4485951;31;20158;-73
2022/12/19 02:20:50;;;;;;;78.95;20.85;;;;;;;-3.75;100.00;100867.16;4484773;31;20441;-73
2022/12/19 02:23:42;;;;;;;77.60;18.90;;;;;;;-3.80;100.00;100865.44;4470226;32;20115;-73
2022/12/19 02:26:21;;;;;;;72.37;15.80;;;;;;;-3.87;100.00;100868.84;4470052;32;20084;-73
2022/12/19 02:29:11;;;;;;;117.62;22.40;;;;;;;-3.80;100.00;100865.44;4470116;32;20165;-73
2022/12/19 02:32:00;;;;;;;88.70;19.50;;;;;;;-3.77;100.00;100870.56;4468815;32;20189;-73
2022/12/19 02:34:35;;;;;;;93.37;21.40;;;;;;;-3.69;100.00;100868.91;4468439;32;20115;-73
2022/12/19 02:37:20;;;;;;;100.47;19.08;;;;;;;-3.66;100.00;100875.75;4469628;32;20138;-73
2022/12/19 02:40:09;;;;;;;70.07;21.75;;;;;;;-3.70;100.00;100886.81;4468835;32;20577;-73
2022/12/19 02:42:38;;;;;;;85.05;21.27;;;;;;;-3.67;100.00;100887.69;4468809;32;20126;-73
2022/12/19 02:45:09;;;;;;;115.57;21.77;;;;;;;-3.61;100.00;100889.41;4469547;32;20084;-73
2022/12/19 02:47:38;;;;;;;70.72;20.40;;;;;;;-3.61;100.00;100882.56;4468462;32;20081;-73
2022/12/19 02:50:06;;;;;;;75.85;21.35;;;;;;;-3.52;100.00;100876.63;4470096;32;20164;-73
2022/12/19 02:52:33;;;;;;;102.62;25.00;;;;;;;-3.43;100.00;100875.81;4469706;32;20171;-73
2022/12/19 02:55:08;;;;;;;78.05;21.15;;;;;;;-3.53;100.00;100874.91;4469832;32;20107;-73
2022/12/19 02:57:42;;;;;;;96.43;21.48;;;;;;;-3.41;100.00;100871.53;4468618;32;20164;-73
2022/12/19 03:00:13;;;;;;;71.85;17.20;;;;;;;-3.37;100.00;100875.81;4469926;32;20111;-73
2022/12/19 03:03:16;;;;;;;92.45;20.80;;;;;;;-3.42;100.00;100873.25;4468726;32;20127;-74
2022/12/19 03:05:53;;;;;;;83.07;23.02;;;;;;;-3.39;100.00;100873.25;4468445;32;20092;-73
2022/12/19 03:09:01;;;;;;;80.87;22.13;;;;;;;-3.21;100.00;100869.84;4471752;32;20120;-73
2022/12/19 03:11:34;;;;;;;75.32;22.05;;;;;;;-3.19;100.00;100880.09;4420239;32;20562;-73
2022/12/19 03:14:06;;;;;;;93.20;25.35;;;;;;;-3.22;100.00;100875.81;4408263;32;20126;-73
2022/12/19 03:16:35;;;;;;;67.57;21.15;;;;;;;-3.30;100.00;100863.84;4420611;32;20117;-73
2022/12/19 03:19:08;;;;;;;70.43;22.52;;;;;;;-3.25;100.00;100867.28;4420998;32;20097;-73
2022/12/19 03:21:42;;;;;;;69.62;21.48;;;;;;;-3.32;100.00;100855.31;4398821;32;20144;-73
2022/12/19 03:24:11;;;;;;;73.53;24.33;;;;;;;-3.16;100.00;100844.22;4393119;32;20446;-73
2022/12/19 03:26:45;;;;;;;72.97;22.90;;;;;;;-3.19;100.00;100844.22;4392955;32;20098;-73
2022/12/19 03:29:21;;;;;;;68.55;21.80;;;;;;;-3.12;100.00;100845.06;4392990;32;20162;-73
2022/12/19 03:31:50;;;;;;;67.40;22.42;;;;;;;-3.01;100.00;100845.06;4392711;32;20167;-73
2022/12/19 03:34:22;;;;;;;60.28;20.12;;;;;;;-2.96;100.00;100839.09;4392692;32;20133;-73
2022/12/19 03:36:54;;;;;;;65.72;23.58;;;;;;;-3.09;100.00;100833.13;4392644;32;20090;-73
2022/12/19 03:39:22;;;;;;;65.87;22.10;;;;;;;-2.97;100.00;100829.69;4392933;32;20140;-73
2022/12/19 03:44:39;;;;;;;74.55;23.35;;;;;;;-2.81;100.00;100835.66;4405170;32;20118;-73
2022/12/19 03:47:27;;;;;;;75.35;22.05;;;;;;;-2.77;100.00;100837.37;4392678;32;20526;-74
2022/12/19 03:49:54;;;;;;;67.87;23.70;;;;;;;-2.67;100.00;100839.03;4468200;32;20100;-73
2022/12/19 03:52:28;;;;;;;78.45;25.02;;;;;;;-2.70;100.00;100844.19;4469180;32;20475;-73
2022/12/19 03:55:15;;;;;;;67.72;20.83;;;;;;;-2.76;100.00;100841.63;4468189;32;20492;-73
2022/12/19 03:58:19;;;;;;;61.55;22.05;;;;;;;-2.75;100.00;100839.94;4467940;32;20141;-73
2022/12/19 04:00:47;;;;;;;66.22;22.02;;;;;;;-2.58;100.00;100842.47;4420275;32;20174;-73
2022/12/19 04:03:16;;;;;;;69.90;22.70;;;;;;;-2.67;100.00;100838.19;4420363;32;20474;-73
2022/12/19 04:05:44;;;;;;;68.55;23.27;;;;;;;-2.76;100.00;100846.75;4407785;32;20154;-73
2022/12/19 04:08:12;;;;;;;57.50;20.92;;;;;;;-2.66;100.00;100839.94;4408374;32;20082;-73
2022/12/19 04:11:00;;;;;;;66.15;22.23;;;;;;;-2.60;100.00;100850.19;4435674;32;20105;-73
2022/12/19 04:13:33;;;;;;;67.25;22.48;;;;;;;-2.62;100.00;100836.50;4435498;32;20508;-74
2022/12/19 04:16:07;;;;;;;57.15;19.45;;;;;;;-2.61;100.00;100832.22;4422944;32;20114;-73
2022/12/19 04:18:35;;;;;;;73.28;24.12;;;;;;;-2.55;100.00;100834.78;4435706;32;20111;-73
2022/12/19 04:21:22;;;;;;;70.32;22.00;;;;;;;-2.55;100.00;100838.19;4416385;32;20354;-73
2022/12/19 04:23:54;;;;;;;79.55;24.30;;;;;;;-2.50;100.00;100856.12;4407600;32;20102;-73
2022/12/19 04:26:22;;;;;;;72.10;24.50;;;;;;;-2.58;100.00;100850.16;4407741;32;20369;-73
2022/12/19 04:28:54;;;;;;;64.93;22.02;;;;;;;-2.50;100.00;100846.75;4407456;32;20128;-73
2022/12/19 04:31:22;;;;;;;60.05;22.08;;;;;;;-2.44;100.00;100847.56;4420228;32;20446;-73
2022/12/19 04:33:49;;;;;;;72.00;24.35;;;;;;;-2.46;100.00;100839.88;4411489;32;20184;-73
2022/12/19 04:36:16;;;;;;;72.62;23.20;;;;;;;-2.39;100.00;100843.28;4468921;32;20535;-73
2022/12/19 04:38:44;;;;;;;56.55;19.42;;;;;;;-2.42;100.00;100845.84;4468697;32;20125;-73
2022/12/19 04:41:11;;;;;;;70.10;21.58;;;;;;;-2.33;100.00;100840.72;4468722;32;20429;-73
2022/12/19 04:43:38;;;;;;;58.97;20.27;;;;;;;-2.33;100.00;100833.84;4468666;32;20481;-73
2022/12/19 04:46:05;;;;;;;55.00;19.75;;;;;;;-2.32;100.00;100835.56;4468778;32;20173;-73
2022/12/19 04:48:36;;;;;;;64.57;20.00;;;;;;;-2.34;100.00;100831.28;4468720;32;20111;-73
2022/12/19 04:51:03;;;;;;;51.63;19.80;;;;;;;-2.32;100.00;100829.56;4468698;32;20140;-73
2022/12/19 04:53:31;;;;;;;68.93;21.30;;;;;;;-2.41;100.00;100820.19;4468606;32;20093;-73
2022/12/19 04:56:03;;;;;;;57.45;19.62;;;;;;;-2.56;100.00;100830.47;4468547;32;20148;-73
2022/12/19 04:58:31;;;;;;;55.78;18.85;;;;;;;-2.53;100.00;100845.88;4468485;32;20528;-73
2022/12/19 05:01:03;;;;;;;72.68;21.08;;;;;;;-2.48;100.00;100849.31;4468586;32;20123;-73
2022/12/19 05:03:31;;;;;;;56.25;21.33;;;;;;;-2.43;100.00;100851.84;4468350;32;20101;-73
2022/12/19 05:06:08;;;;;;;77.45;23.62;;;;;;;-2.39;100.00;100849.28;4473131;32;20101;-73
2022/12/19 05:08:37;;;;;;;83.93;21.30;;;;;;;-2.46;100.00;100839.03;4480069;31;20496;-73
2022/12/19 05:11:05;;;;;;;75.45;23.30;;;;;;;-2.37;100.00;100844.97;4480959;31;20119;-73
2022/12/19 05:13:33;;;;;;;66.75;21.23;;;;;;;-2.35;100.00;100850.13;4481876;31;20100;-73
2022/12/19 05:16:05;;;;;;;87.72;22.02;;;;;;;-2.42;100.00;100849.28;4482631;32;20118;-74
2022/12/19 05:18:33;;;;;;;76.05;23.10;;;;;;;-2.39;100.00;100858.66;4484138;31;20106;-73
2022/12/19 05:21:00;;;;;;;65.85;21.02;;;;;;;-2.30;100.00;100863.81;4475254;31;20155;-74
2022/12/19 05:23:27;;;;;;;69.65;23.15;;;;;;;-2.23;100.00;100857.78;4482520;32;20127;-74
2022/12/19 05:25:58;;;;;;;64.05;21.77;;;;;;;-2.18;100.00;100857.75;4482650;31;20509;-73
2022/12/19 05:28:26;;;;;;;67.93;22.05;;;;;;;-2.27;100.00;100853.53;4478145;31;20239;-74
2022/12/19 05:31:14;;;;;;;53.40;19.37;;;;;;;-2.21;100.00;100847.50;4480951;31;20108;-74
2022/12/19 05:33:42;;;;;;;64.60;21.15;;;;;;;-2.28;100.00;100846.69;4480328;32;20152;-74
2022/12/19 05:36:10;;;;;;;76.22;22.20;;;;;;;-2.26;100.00;100849.25;4480234;31;20461;-73
2022/12/19 05:38:37;;;;;;;74.75;22.92;;;;;;;-2.22;100.00;100840.69;4476528;32;20170;-73
2022/12/19 05:41:10;;;;;;;62.15;21.55;;;;;;;-2.23;100.00;100834.66;4486040;31;20385;-74
2022/12/19 05:43:41;;;;;;;72.50;21.12;;;;;;;-2.23;100.00;100836.38;4483354;31;20185;-73
2022/12/19 05:46:08;;;;;;;56.05;19.62;;;;;;;-2.16;100.00;100838.94;4483812;32;20526;-74
2022/12/19 05:48:37;;;;;;;62.60;21.23;;;;;;;-2.16;100.00;100843.22;4476441;32;20575;-74
2022/12/19 05:51:04;;;;;;;68.68;21.65;;;;;;;-2.17;100.00;100847.47;4479138;32;20118;-73
2022/12/19 05:53:33;;;;;;;86.95;23.65;;;;;;;-2.21;100.00;100848.38;4482456;31;20100;-74
2022/12/19 05:56:12;;;;;;;69.00;23.40;;;;;;;-2.12;100.00;100832.06;4483093;32;20143;-73
2022/12/19 05:58:40;;;;;;;69.15;22.05;;;;;;;-2.14;100.00;100837.19;4484049;31;20099;-73
2022/12/19 06:01:10;;;;;;;59.15;21.45;;;;;;;-2.04;100.00;100830.34;4483531;31;20107;-74
2022/12/19 06:03:37;;;;;;;75.50;22.90;;;;;;;-2.01;100.00;100838.03;4483901;32;20088;-74
2022/12/19 06:06:08;;;;;;;85.62;25.02;;;;;;;-2.17;100.00;100838.94;4482315;31;20123;-73
2022/12/19 06:08:35;;;;;;;82.93;25.88;;;;;;;-2.10;100.00;100840.63;4482068;31;20104;-73
2022/12/19 06:11:04;;;;;;;81.32;25.25;;;;;;;-2.11;100.00;100848.34;4479300;32;20152;-73
2022/12/19 06:13:32;;;;;;;83.22;22.90;;;;;;;-2.14;100.00;100856.91;4479314;32;20462;-73
2022/12/19 06:16:01;;;;;;;82.22;25.05;;;;;;;-2.03;100.00;100862.00;4477726;31;20097;-74
2022/12/19 06:18:29;;;;;;;90.82;25.15;;;;;;;-2.09;100.00;100857.75;4479494;32;20114;-73
2022/12/19 06:21:05;;;;;;;85.43;23.87;;;;;;;-2.02;100.00;100856.00;4478652;32;20075;-73
2022/12/19 06:23:34;;;;;;;84.25;25.65;;;;;;;-2.20;100.00;100849.22;4482952;31;20100;-74
2022/12/19 06:26:03;;;;;;;91.60;25.75;;;;;;;-2.06;100.00;100846.59;4476125;31;20158;-74
2022/12/19 06:28:31;;;;;;;103.00;23.15;;;;;;;-2.25;100.00;100848.41;4476044;32;20120;-74
2022/12/19 06:31:01;;;;;;;88.30;22.80;;;;;;;-2.27;100.00;100860.34;4476097;32;20159;-74
2022/12/19 06:33:28;;;;;;;84.80;26.12;;;;;;;-2.08;100.00;100854.31;4481359;31;20192;-75
2022/12/19 06:36:01;;;;;;;102.62;26.65;;;;;;;-2.07;100.00;100855.19;4471551;31;20119;-73
2022/12/19 06:38:29;;;;;;;101.55;24.40;;;;;;;-2.10;100.00;100856.03;4477414;31;20092;-74
2022/12/19 06:43:42;;;;;;;69.37;24.35;;;;;;;-2.04;100.00;100861.16;4481661;32;20153;-74
2022/12/19 06:46:09;;;;;;;114.57;29.45;;;;;;;-2.13;100.00;100856.03;4474076;32;20100;-73
2022/12/19 06:48:36;;;;;;;87.57;22.05;;;;;;;-2.08;100.00;100854.31;4474701;32;20108;-74
2022/12/19 06:51:04;;;;;;;131.37;27.42;;;;;;;-2.14;100.00;100854.34;4482167;31;20144;-73
2022/12/19 06:53:31;;;;;;;112.70;26.87;;;;;;;-2.18;100.00;100852.62;4475116;31;20149;-74
2022/12/19 06:55:59;;;;;;;113.90;24.00;;;;;;;-2.21;100.00;100852.62;4467475;32;20821;-74
2022/12/19 06:58:26;;;;;;;75.65;23.77;;;;;;;-2.14;100.00;100844.06;4475281;32;20135;-75
2022/12/19 07:00:53;;;;;;;86.28;23.33;;;;;;;-2.22;100.00;100850.94;4476843;31;20550;-76
2022/12/19 07:03:28;;;;;;;162.85;29.12;;;;;;;-2.25;100.00;100851.81;4480134;32;20096;-75
2022/12/19 07:05:56;;;;;;;81.35;21.65;;;;;;;-2.17;100.00;100859.47;4471813;32;20104;-75
2022/12/19 07:08:23;;;;;;;90.97;20.35;;;;;;;-2.11;100.00;100851.75;4478992;31;20092;-74
2022/12/19 07:10:53;;;;;;;94.50;23.85;;;;;;;-2.10;100.00;100850.91;4481083;32;20423;-74
2022/12/19 07:13:20;;;;;;;119.43;29.63;;;;;;;-2.09;100.00;100870.59;4480101;32;20123;-74
2022/12/19 07:15:48;;;;;;;100.38;27.40;;;;;;;-1.98;100.00;100873.97;4471327;32;20165;-73
2022/12/19 07:18:15;;;;;;;111.12;26.60;;;;;;;-2.15;100.00;100874.03;4471531;32;20096;-74
2022/12/19 07:20:43;;;;;;;138.25;28.10;;;;;;;-1.99;100.00;100869.69;4478480;31;20092;-73
2022/12/19 07:23:13;;;;;;;113.00;25.23;;;;;;;-2.06;100.00;100875.72;4479459;31;20096;-73
2022/12/19 07:25:41;;;;;;;126.55;25.10;;;;;;;-1.99;100.00;100869.69;4480831;32;20198;-73
2022/12/19 07:28:08;;;;;;;95.93;26.98;;;;;;;-2.12;100.00;100862.03;4474964;31;20721;-75
2022/12/19 07:30:35;;;;;;;142.48;26.67;;;;;;;-1.85;100.00;100866.19;4471277;32;20520;-73
2022/12/19 07:33:02;;;;;;;171.05;30.50;;;;;;;-1.94;100.00;100868.81;4478032;32;20092;-73
2022/12/19 07:35:30;;;;;;;98.22;24.45;;;;;;;-2.02;100.00;100876.56;4481849;31;20101;-73
2022/12/19 07:38:01;;;;;;;99.37;24.27;;;;;;;-1.96;100.00;100873.97;4480048;31;20145;-78
2022/12/19 07:40:28;;;;;;;100.32;23.15;;;;;;;-1.90;100.00;100873.09;4483648;31;20438;-74
2022/12/19 07:43:00;;;;;;;74.45;21.12;;;;;;;-1.98;100.00;100871.41;4482263;31;20147;-74
2022/12/19 07:45:27;;;;;;;113.28;26.12;;;;;;;-2.01;100.00;100858.56;4483429;31;20080;-75
2022/12/19 07:47:55;;;;;;;123.90;26.33;;;;;;;-2.17;100.00;100859.47;4477817;31;20206;-75
2022/12/19 07:50:25;;;;;;;134.27;27.83;;;;;;;-2.29;100.00;100859.53;4473108;32;20084;-75
2022/12/19 07:52:52;;;;;;;89.60;27.13;;;;;;;-1.99;100.00;100863.69;4483909;31;20177;-76
2022/12/19 07:55:19;;;;;;;86.57;27.95;;;;;;;-2.13;100.00;100871.47;4475212;32;20088;-76
2022/12/19 07:57:47;;;;;;;102.12;30.37;;;;;;;-2.18;100.00;100884.31;4474294;31;20104;-76
2022/12/19 08:00:14;;;;;;;67.72;22.20;;;;;;;-2.20;100.00;100882.59;4478678;32;20088;-74
2022/12/19 08:02:42;;;;;;;71.90;22.15;;;;;;;-2.13;100.00;100871.47;4476253;31;20153;-76
2022/12/19 08:05:10;;;;;;;77.10;22.65;;;;;;;-2.10;100.00;100880.87;4471662;32;20120;-75
2022/12/19 08:07:37;;;;;;;73.25;22.08;;;;;;;-1.93;100.00;100894.50;4476703;32;20088;-77
2022/12/19 08:10:05;;;;;;;75.75;22.42;;;;;;;-1.74;100.00;100892.72;4478134;31;20104;-77
2022/12/19 08:12:33;;;;;;;68.10;20.45;;;;;;;-1.86;100.00;100895.31;4477281;32;20116;-77
2022/12/19 08:15:00;;;;;;;56.67;17.58;;;;;;;-1.98;100.00;100896.25;4475880;31;20112;-77
2022/12/19 08:17:27;;;;;;;56.37;19.27;;;;;;;-1.98;100.00;100902.22;4475562;32;20096;-75
2022/12/19 08:19:54;;;;;;;50.88;17.67;;;;;;;-1.72;100.00;100903.84;4478597;32;20104;-78
2022/12/19 08:22:22;;;;;;;59.70;18.58;;;;;;;-1.69;100.00;100903.81;4470078;32;20628;-78
2022/12/19 08:24:49;;;;;;;57.97;18.73;;;;;;;-1.52;100.00;100893.44;4478345;32;20355;-76
2022/12/19 08:27:16;;;;;;;67.68;19.92;;;;;;;-1.75;100.00;100895.28;4472060;31;20485;-77
2022/12/19 08:29:43;;;;;;;56.50;18.20;;;;;;;-1.69;100.00;100887.56;4478793;31;20084;-76
2022/12/19 08:32:11;;;;;;;63.55;19.65;;;;;;;-1.62;100.00;100881.50;4467625;32;20184;-77
2022/12/19 08:34:47;;;;;;;48.85;15.27;;;;;;;-1.56;100.00;100884.06;4483452;32;20171;-77
2022/12/19 08:37:14;;;;;;;60.58;18.37;;;;;;;-1.50;100.00;100872.88;4484223;31;20162;-75
2022/12/19 08:39:41;;;;;;;47.08;15.48;;;;;;;-1.63;100.00;100872.94;4473894;31;20092;-75
2022/12/19 08:42:08;;;;;;;46.90;14.63;;;;;;;-1.43;100.00;100869.41;4474058;32;20088;-74
2022/12/19 08:44:36;;;;;;;39.88;13.45;;;;;;;-1.73;100.00;100866.16;4482320;31;20095;-73
2022/12/19 08:47:03;;;;;;;34.45;11.27;;;;;;;-1.77;100.00;100858.47;4482393;31;20088;-75
2022/12/19 08:49:30;;;;;;;36.55;10.55;;;;;;;-1.84;100.00;100867.91;4481976;32;20118;-75
2022/12/19 08:51:58;;;;;;;35.65;12.18;;;;;;;-1.79;100.00;100872.19;4483821;31;20156;-74
2022/12/19 08:54:25;;;;;;;34.08;13.30;;;;;;;-1.71;100.00;100873.84;4480786;31;20105;-76
2022/12/19 08:56:53;;;;;;;35.55;12.32;;;;;;;-1.55;100.00;100866.91;4477396;32;20876;-74
2022/12/19 08:59:20;;;;;;;34.58;13.40;;;;;;;-1.49;100.00;100870.28;4474432;32;20164;-74
2022/12/19 09:01:59;;;;;;;40.72;15.25;;;;;;;-1.51;100.00;100886.62;4476502;32;20089;-75
2022/12/19 09:04:27;;;;;;;30.25;10.30;;;;;;;-1.55;100.00;100880.63;4483077;32;20116;-75
2022/12/19 09:07:14;;;;;;;29.55;11.85;;;;;;;-1.62;100.00;100869.53;4479886;32;20088;-72
2022/12/19 09:09:45;;;;;;;38.53;11.18;;;;;;;-1.95;100.00;100870.53;4476337;31;20773;-76
2022/12/19 09:12:13;;;;;;;35.70;12.40;;;;;;;-1.93;100.00;100863.66;4472746;32;20108;-76
2022/12/19 09:14:40;;;;;;;35.20;12.63;;;;;;;-1.93;100.00;100857.69;4482235;32;20454;-79
2022/12/19 09:17:08;;;;;;;35.55;11.05;;;;;;;-1.82;100.00;100858.47;4482876;31;20104;-75
2022/12/19 09:19:35;;;;;;;36.97;12.10;;;;;;;-1.84;100.00;100863.63;4479282;31;20092;-75
2022/12/19 09:22:02;;;;;;;27.80;11.15;;;;;;;-1.87;100.00;100871.34;4481069;32;20479;-75
2022/12/19 09:24:29;;;;;;;22.92;9.00;;;;;;;-1.90;100.00;100884.22;4477489;32;20124;-75
2022/12/19 09:26:56;;;;;;;30.25;9.98;;;;;;;-1.77;100.00;100889.28;4468942;32;20130;-76
2022/12/19 09:29:24;;;;;;;35.83;12.68;;;;;;;-1.69;100.00;100877.28;4480574;31;20163;-75
2022/12/19 09:31:51;;;;;;;26.92;9.77;;;;;;;-1.76;100.00;100871.28;4479566;31;20556;-76
2022/12/19 09:34:30;;;;;;;36.10;11.63;;;;;;;-1.67;100.00;100878.13;4483929;31;20441;-75
2022/12/19 09:37:08;;;;;;;34.13;13.10;;;;;;;-1.79;100.00;100868.75;4480208;32;20156;-73
2022/12/19 09:39:45;;;;;;;29.95;11.02;;;;;;;-1.88;100.00;100853.38;4468971;31;20157;-74
2022/12/19 09:42:29;;;;;;;28.48;10.88;;;;;;;-1.73;100.00;100852.44;4476229;32;20239;-73
2022/12/19 09:45:10;;;;;;;27.50;9.93;;;;;;;-1.59;100.00;100848.06;4468867;32;20093;-72
2022/12/19 09:47:46;;;;;;;33.55;10.40;;;;;;;-1.56;100.00;100842.94;4468145;32;20097;-72
2022/12/19 09:50:54;;;;;;;36.30;12.80;;;;;;;-1.75;100.00;100839.63;4477989;32;20106;-72
2022/12/19 09:53:58;;;;;;;30.98;10.05;;;;;;;-1.48;100.00;100837.75;4479290;32;20130;-75
2022/12/19 09:56:28;;;;;;;35.53;11.90;;;;;;;-1.39;100.00;100844.53;4479813;32;20127;-74
2022/12/19 09:59:39;;;;;;;30.88;10.50;;;;;;;-1.16;100.00;100828.97;4478585;31;20180;-75
2022/12/19 10:02:21;;;;;;;28.15;9.77;;;;;;;-1.12;100.00;100816.06;4425361;32;20177;-75
2022/12/19 10:04:54;;;;;;;32.60;13.25;;;;;;;-1.18;100.00;100817.81;4433408;32;20143;-74
2022/12/19 10:07:43;;;;;;;41.55;14.57;;;;;;;-1.15;100.00;100831.53;4427460;32;20307;-74
2022/12/19 10:10:46;;;;;;;40.83;14.50;;;;;;;-1.08;100.00;100822.03;4429020;32;20205;-75
2022/12/19 10:13:33;;;;;;;30.45;10.73;;;;;;;-0.95;100.00;100810.75;4432067;32;20105;-75
2022/12/19 10:16:26;;;;;;;37.58;12.27;;;;;;;-0.76;100.00;100801.16;4431076;32;20122;-77
2022/12/19 10:18:59;;;;;;;39.95;10.88;;;;;;;-0.69;100.00;100817.38;4434395;32;20135;-74
2022/12/19 10:21:58;;;;;;;30.40;10.55;;;;;;;-0.72;100.00;100820.00;4431974;32;20150;-77
2022/12/19 10:25:04;;;;;;;28.58;10.45;;;;;;;-0.78;100.00;100820.91;4410104;32;20097;-76
2022/12/19 10:28:14;;;;;;;30.27;10.07;;;;;;;-0.73;100.00;100816.56;4432166;32;20183;-73
2022/12/19 10:30:46;;;;;;;33.40;11.18;;;;;;;-0.91;100.00;100817.59;4443168;32;20092;-74
2022/12/19 10:33:19;;;;;;;30.48;10.23;;;;;;;-0.85;100.00;100792.66;4459227;32;20164;-74
2022/12/19 10:35:52;;;;;;;21.52;10.48;;;;;;;-0.73;100.00;100797.69;4482918;32;20152;-75
2022/12/19 10:38:46;;;;;;;37.50;13.80;;;;;;;-0.91;100.00;100804.72;4480175;32;20157;-73
2022/12/19 10:41:23;;;;;;;25.05;8.43;;;;;;;-0.57;100.00;100803.53;4471947;32;20196;-72
2022/12/19 10:44:06;;;;;;;30.23;11.27;;;;;;;-0.43;100.00;100793.94;4478746;31;20092;-73
2022/12/19 10:46:39;;;;;;;26.23;10.48;;;;;;;-0.41;100.00;100792.22;4483533;32;20118;-74
2022/12/19 10:49:18;;;;;;;38.67;14.43;;;;;;;-0.37;100.00;100790.44;4483791;31;20091;-72
2022/12/19 10:52:02;;;;;;;36.25;11.63;;;;;;;-0.38;100.00;100794.75;4484104;32;20164;-74
2022/12/19 10:54:38;;;;;;;46.72;11.20;;;;;;;-0.31;100.00;100790.38;4481912;32;20119;-73
2022/12/19 10:57:17;;;;;;;46.03;13.80;;;;;;;-0.46;100.00;100790.56;4483450;31;20093;-73
2022/12/19 10:59:57;;;;;;;32.40;11.90;;;;;;;-0.59;100.00;100788.12;4483024;31;20104;-73
2022/12/19 11:02:37;;;;;;;36.70;12.50;;;;;;;-0.36;100.00;100787.00;4479077;31;20110;-74
2022/12/19 11:05:20;;;;;;;33.25;12.10;;;;;;;-0.28;100.00;100776.59;4478622;32;20089;-75
2022/12/19 11:08:13;;;;;;;40.42;12.10;;;;;;;-0.08;100.00;100776.34;4483425;32;20089;-73
2022/12/19 11:10:43;;;;;;;26.73;10.02;;;;;;;-0.10;100.00;100775.53;4481103;32;20152;-74
2022/12/19 11:13:33;;;;;;;28.40;9.25;;;;;;;-0.07;100.00;100767.75;4484871;31;20560;-72
2022/12/19 11:16:24;;;;;;;38.03;11.70;;;;;;;-0.18;100.00;100770.47;4482862;31;20092;-73
2022/12/19 11:19:40;;;;;;;28.20;9.57;;;;;;;-0.11;100.00;100778.97;4473790;32;20458;-73
2022/12/19 11:22:30;;;;;;;33.03;12.27;;;;;;;0.08;100.00;100780.44;4482394;31;20164;-74
2022/12/19 11:25:20;;;;;;;29.87;10.40;;;;;;;-0.27;100.00;100768.87;4466568;32;20096;-73
2022/12/19 11:28:25;;;;;;;34.35;12.45;;;;;;;-0.11;100.00;100771.25;4484030;32;20112;-73
2022/12/19 11:31:22;;;;;;;34.53;11.23;;;;;;;0.00;100.00;100764.25;4478900;32;20101;-73
2022/12/19 11:34:20;;;;;;;28.87;9.27;;;;;;;0.04;100.00;100754.72;4479905;32;20134;-72
2022/12/19 11:36:51;;;;;;;32.83;11.23;;;;;;;-0.19;100.00;100761.03;4468561;32;20584;-72
2022/12/19 11:39:30;;;;;;;33.60;12.25;;;;;;;-0.23;100.00;100757.66;4472506;32;20808;-72